Perris, CA (92599)

6:57 PM PDT on October 21, 2014 (GMT -0700)
Perris | Change Station
CLOSE
Current Station
Personal Weather Station
Location: Perris, CA
Elevation: 1453 ft
Nearby Weather Stations

Elev 1453 ft 33.77 °N, 117.23 °W | Updated 12 minutes ago

Clear
Clear
73.6 °F
Feels Like 77 °F
N
5.4
Wind Variable Wind from South
Gusts 9.8 mph

Today
High -- | Low -- °F
--% Chance of Precip.
Yesterday
High -- | Low -- °F
Precip. -- in
6:58 AM 6:07 PM
Waning Crescent, 3% visible
Pressure 29.83 in
Visibility 10.0 miles
Clouds Clear
Heat Index 77 °F
Dew Point 54 °F
Humidity 51%
Rainfall 0.00 in
Snow Depth Not available.
UV 0 out of 12
Pollen 3.90 out of 12
Ozone Good
PM2.5 Moderate
Flu Activity Sporadic
METAR KRIV 220058Z AUTO 29010KT 10SM CLR 24/11 A2986 RMK AO2 SLP102 T02390111

More Conditions Fewer Conditions

Pressure 29.83 in
Visibility 10.0 miles
Clouds Clear
Heat Index 77 °F
Dew Point 54 °F
Humidity 51%
Rainfall 0.00 in
Snow Depth Not available.
UV 0 out of 12
Pollen 3.90 out of 12
Ozone Good
PM2.5 Moderate
Flu Activity Sporadic
METAR KRIV 220058Z AUTO 29010KT 10SM CLR 24/11 A2986 RMK AO2 SLP102 T02390111

More Conditions Fewer Conditions

10-Day Weather Forecast

Almanac

Astronomy

Oct. 21, 2014 Rise Set
Actual Time 6:58 AM PDT 6:07 PM PDT
Civil Twilight 6:33 AM PDT 6:32 PM PDT
Nautical Twilight 6:04 AM PDT 7:02 PM PDT
Astronomical Twilight 5:35 AM PDT 7:30 PM PDT
Moon 4:53 AM PDT (10/21) 4:59 PM PDT (10/21)
Length of Visible Light 11h 59m
Length of Day
11h 08m
Tomorrow will be 1m 58s shorter.
Waning Crescent, 3% of the Moon is Illuminated
Today
Waning Crescent
Oct 23
New
Oct 30
First Quarter
Nov 6
Full
Nov 14
Last Quarter

Today's Extremes

State Highs State Lows

Community

WunderPhotos

Upload Photos

1,763,843 photos uploaded!

Nearby

Air Quality

  Air Quality AQ Index Pollutant
Yesterday Good
PM10
Yesterday Moderate
OZONE
Current Moderate
PM2.5
Current Good
OZONE
Wednesday Good
PM10
Wednesday Moderate
OZONE
Wednesday Good
CO
Wednesday Good
NO2

Snow Depth

Station Depth Elevation
Leavitt Meadows 0 in 7200 ft
Blue Lakes 0 in 8000 ft
Echo Peak 0 in 7800 ft
Ward Creek #3 1 in 6750 ft
Adin Mountain 0 in 6200 ft

Earthquake Activity

City Distance Mag. Time & Date
No recent earthquake activity has been reported nearby.
Minimum magnitude displayed is 2.5.

Coastal Water Temperatures

Place Temperature
No Stations Reporting

Nearby Weather Stations